createdAt,value
2022-08-30T00:02:28.441Z,100.00
2022-08-30T00:04:57.363Z,100.00
2022-08-30T00:07:25.728Z,100.00
2022-08-30T00:09:55.617Z,100.00
2022-08-30T00:12:24.082Z,100.00
2022-08-30T00:14:54.478Z,100.00
2022-08-30T00:17:22.751Z,100.00
2022-08-30T00:19:51.018Z,100.00
2022-08-30T00:22:19.270Z,100.00
2022-08-30T00:24:47.457Z,100.00
2022-08-30T00:27:17.301Z,100.00
2022-08-30T00:29:45.830Z,100.00
2022-08-30T00:32:14.018Z,100.00
2022-08-30T00:34:42.190Z,100.00
2022-08-30T00:37:10.467Z,100.00
2022-08-30T00:39:38.801Z,100.00
2022-08-30T00:42:07.983Z,100.00
2022-08-30T00:44:37.675Z,100.00
2022-08-30T00:47:06.255Z,100.00
2022-08-30T00:49:37.395Z,100.00
2022-08-30T00:52:07.305Z,100.00
2022-08-30T00:54:38.351Z,100.00
2022-08-30T00:57:07.239Z,100.00
2022-08-30T00:59:38.302Z,100.00
2022-08-30T01:02:07.549Z,100.00
2022-08-30T01:04:37.379Z,100.00
2022-08-30T01:07:05.868Z,100.00
2022-08-30T01:09:34.050Z,100.00
2022-08-30T01:12:02.738Z,100.00
2022-08-30T01:14:33.309Z,100.00
2022-08-30T01:17:05.983Z,100.00
2022-08-30T01:19:43.250Z,100.00
2022-08-30T01:22:27.484Z,100.00
2022-08-30T01:25:01.275Z,100.00
2022-08-30T01:27:31.903Z,100.00
2022-08-30T01:30:00.617Z,100.00
2022-08-30T01:32:30.423Z,100.00
2022-08-30T01:34:59.513Z,100.00
2022-08-30T01:37:32.706Z,100.00
2022-08-30T01:40:02.675Z,100.00
2022-08-30T01:42:31.094Z,100.00
2022-08-30T01:44:59.372Z,100.00
2022-08-30T01:47:27.758Z,100.00
2022-08-30T01:49:55.938Z,100.00
2022-08-30T01:52:24.146Z,100.00
2022-08-30T01:54:53.494Z,100.00
2022-08-30T01:57:26.786Z,100.00
2022-08-30T01:59:55.089Z,100.00
2022-08-30T02:02:26.866Z,100.00
2022-08-30T02:04:55.924Z,100.00
2022-08-30T02:07:25.338Z,100.00
2022-08-30T02:09:54.521Z,100.00
2022-08-30T02:12:24.135Z,100.00
2022-08-30T02:14:52.341Z,100.00
2022-08-30T02:17:21.184Z,100.00
2022-08-30T02:19:49.859Z,100.00
2022-08-30T02:22:18.208Z,100.00
2022-08-30T02:24:46.455Z,100.00
2022-08-30T02:27:14.896Z,100.00
2022-08-30T02:29:44.951Z,100.00
2022-08-30T02:32:13.166Z,100.00
2022-08-30T02:34:41.600Z,100.00
2022-08-30T02:37:10.314Z,100.00
2022-08-30T02:39:38.703Z,100.00
2022-08-30T02:42:07.390Z,100.00
2022-08-30T02:44:35.725Z,100.00
2022-08-30T02:47:05.514Z,100.00
2022-08-30T02:49:34.349Z,100.00
2022-08-30T02:52:04.109Z,100.00
2022-08-30T02:54:33.278Z,100.00
2022-08-30T02:57:05.087Z,100.00
2022-08-30T02:59:34.086Z,100.00
2022-08-30T03:02:03.987Z,100.00
2022-08-30T03:04:32.405Z,100.00
2022-08-30T03:07:01.680Z,100.00
2022-08-30T03:09:29.962Z,100.00
2022-08-30T03:11:58.599Z,100.00
2022-08-30T03:14:28.096Z,100.00
2022-08-30T03:16:56.528Z,100.00
2022-08-30T03:19:26.877Z,100.00
2022-08-30T03:21:55.309Z,100.00
2022-08-30T03:24:23.511Z,100.00
2022-08-30T03:26:51.956Z,100.00
2022-08-30T03:29:20.155Z,100.00
2022-08-30T03:31:53.660Z,100.00
2022-08-30T03:34:23.697Z,100.00
2022-08-30T03:36:55.643Z,100.00
2022-08-30T03:39:25.662Z,100.00
2022-08-30T03:41:54.874Z,100.00
2022-08-30T03:44:23.521Z,100.00
2022-08-30T03:46:52.088Z,100.00
2022-08-30T03:49:21.416Z,100.00
2022-08-30T03:51:49.828Z,100.00
2022-08-30T03:54:19.902Z,100.00
2022-08-30T03:56:48.374Z,100.00
2022-08-30T03:59:17.300Z,100.00
2022-08-30T04:01:46.012Z,100.00
2022-08-30T04:04:20.021Z,100.00
2022-08-30T04:06:49.718Z,100.00
2022-08-30T04:09:19.937Z,100.00
2022-08-30T04:11:48.614Z,100.00
2022-08-30T04:14:16.803Z,100.00
2022-08-30T04:16:46.895Z,100.00
2022-08-30T04:19:15.660Z,100.00
2022-08-30T04:21:44.791Z,100.00
2022-08-30T04:24:13.533Z,100.00
2022-08-30T04:26:45.422Z,100.00
2022-08-30T04:29:16.599Z,100.00
2022-08-30T04:31:45.433Z,100.00
2022-08-30T04:34:14.963Z,100.00
2022-08-30T04:36:48.119Z,100.00
2022-08-30T04:39:16.939Z,100.00
2022-08-30T04:41:47.008Z,100.00
2022-08-30T04:44:19.435Z,100.00
2022-08-30T04:46:48.256Z,100.00
2022-08-30T04:49:16.623Z,100.00
2022-08-30T04:51:44.815Z,100.00
2022-08-30T04:54:13.493Z,100.00
2022-08-30T04:56:41.853Z,100.00
2022-08-30T04:59:11.861Z,100.00
2022-08-30T05:01:45.750Z,100.00
2022-08-30T05:04:14.795Z,100.00
2022-08-30T05:06:43.556Z,100.00
2022-08-30T05:09:12.025Z,100.00
2022-08-30T05:11:40.713Z,100.00
2022-08-30T05:14:09.072Z,100.00
2022-08-30T05:16:39.847Z,100.00
2022-08-30T05:19:08.944Z,100.00
2022-08-30T05:21:40.596Z,100.00
2022-08-30T05:24:09.692Z,100.00
2022-08-30T05:26:40.350Z,100.00
2022-08-30T05:29:08.705Z,100.00
2022-08-30T05:31:39.102Z,100.00
2022-08-30T05:34:07.599Z,100.00
2022-08-30T05:36:38.360Z,100.00
2022-08-30T05:39:09.064Z,100.00
2022-08-30T05:41:39.132Z,100.00
2022-08-30T05:44:24.124Z,100.00
2022-08-30T05:46:55.615Z,100.00
2022-08-30T05:49:24.069Z,100.00
2022-08-30T05:51:52.491Z,100.00
2022-08-30T05:54:21.242Z,100.00
2022-08-30T05:56:52.489Z,100.00
2022-08-30T05:59:21.460Z,100.00
2022-08-30T06:01:49.911Z,100.00
2022-08-30T06:04:20.104Z,100.00
2022-08-30T06:06:49.202Z,100.00
2022-08-30T06:09:17.765Z,100.00
2022-08-30T06:11:46.591Z,100.00
2022-08-30T06:14:15.991Z,100.00
2022-08-30T06:16:45.894Z,100.00
2022-08-30T06:19:24.198Z,100.00
2022-08-30T06:21:53.917Z,100.00
2022-08-30T06:24:35.700Z,100.00
2022-08-30T06:27:18.622Z,100.00
2022-08-30T06:29:47.751Z,100.00
2022-08-30T06:32:16.097Z,100.00
2022-08-30T06:34:44.396Z,100.00
2022-08-30T06:37:29.527Z,100.00
2022-08-30T06:39:58.784Z,100.00
2022-08-30T06:42:31.766Z,100.00
2022-08-30T06:45:10.463Z,100.00
2022-08-30T06:47:42.552Z,100.00
2022-08-30T06:50:16.301Z,100.00
2022-08-30T06:52:47.503Z,100.00
2022-08-30T06:55:19.270Z,100.00
2022-08-30T06:57:50.601Z,100.00
2022-08-30T07:00:19.683Z,100.00
2022-08-30T07:02:48.536Z,100.00
2022-08-30T07:05:27.301Z,100.00
2022-08-30T07:07:59.781Z,100.00
2022-08-30T07:10:27.959Z,100.00
2022-08-30T07:12:56.072Z,100.00
2022-08-30T07:15:33.988Z,100.00
2022-08-30T07:18:24.423Z,100.00
2022-08-30T07:20:52.368Z,100.00
2022-08-30T07:23:22.103Z,100.00
2022-08-30T07:25:50.445Z,100.00
2022-08-30T07:28:18.738Z,100.00
2022-08-30T07:30:47.070Z,100.00
2022-08-30T07:33:15.360Z,100.00
2022-08-30T07:35:43.803Z,100.00
2022-08-30T07:38:14.715Z,100.00
2022-08-30T07:40:44.719Z,100.00
2022-08-30T07:43:13.012Z,100.00
2022-08-30T07:45:41.277Z,100.00
2022-08-30T07:48:11.533Z,100.00
2022-08-30T07:50:40.120Z,100.00
2022-08-30T07:53:10.793Z,100.00
2022-08-30T07:55:39.612Z,100.00
2022-08-30T07:58:09.205Z,100.00
2022-08-30T08:00:46.128Z,100.00
2022-08-30T08:03:14.425Z,100.00
2022-08-30T08:05:46.138Z,100.00
2022-08-30T08:08:15.532Z,100.00
2022-08-30T08:10:44.349Z,100.00
2022-08-30T08:13:14.112Z,100.00
2022-08-30T08:15:42.446Z,100.00
2022-08-30T08:18:10.701Z,100.00
2022-08-30T08:20:38.946Z,100.00
2022-08-30T08:23:07.199Z,100.00
2022-08-30T08:25:41.503Z,100.00
2022-08-30T08:28:10.346Z,100.00
2022-08-30T08:30:41.570Z,100.00
2022-08-30T08:33:13.094Z,100.00
2022-08-30T08:35:41.389Z,100.00
2022-08-30T08:38:10.089Z,100.00
2022-08-30T08:40:48.631Z,100.00
2022-08-30T08:43:21.743Z,100.00
2022-08-30T08:45:58.892Z,100.00
2022-08-30T08:48:58.422Z,100.00
2022-08-30T08:51:47.170Z,100.00
2022-08-30T08:54:22.310Z,100.00
2022-08-30T08:56:52.537Z,100.00
2022-08-30T08:59:20.759Z,100.00
2022-08-30T09:01:51.068Z,100.00
2022-08-30T09:04:26.270Z,100.00
2022-08-30T09:07:04.065Z,100.00
2022-08-30T09:09:35.056Z,100.00
2022-08-30T09:12:06.516Z,100.00
2022-08-30T09:14:44.270Z,100.00
2022-08-30T09:17:18.543Z,100.00
2022-08-30T09:19:58.373Z,100.00
2022-08-30T09:22:33.836Z,100.00
2022-08-30T09:25:07.038Z,100.00
2022-08-30T09:27:38.538Z,100.00
2022-08-30T09:30:14.766Z,100.00
2022-08-30T09:32:54.562Z,100.00
2022-08-30T09:35:25.662Z,100.00
2022-08-30T09:37:57.378Z,100.00
2022-08-30T09:40:36.184Z,100.00
2022-08-30T09:43:12.673Z,100.00
2022-08-30T09:45:47.123Z,100.00
2022-08-30T09:48:38.274Z,100.00
2022-08-30T09:51:51.467Z,100.00
2022-08-30T09:54:27.369Z,100.00
2022-08-30T09:57:13.062Z,100.00
2022-08-30T09:59:54.899Z,100.00
2022-08-30T10:03:07.073Z,100.00
2022-08-30T10:05:49.407Z,100.00
2022-08-30T10:08:32.725Z,100.00
2022-08-30T10:11:06.888Z,100.00
2022-08-30T10:13:52.240Z,100.00
2022-08-30T10:16:36.006Z,100.00
2022-08-30T10:19:19.134Z,100.00
2022-08-30T10:21:58.150Z,100.00
2022-08-30T10:24:33.698Z,100.00
2022-08-30T10:27:09.777Z,100.00
2022-08-30T10:29:45.715Z,100.00
2022-08-30T10:32:20.006Z,100.00
2022-08-30T10:34:55.677Z,100.00
2022-08-30T10:37:30.678Z,100.00
2022-08-30T10:40:22.829Z,100.00
2022-08-30T10:42:55.090Z,100.00
2022-08-30T10:45:24.580Z,100.00
2022-08-30T10:48:03.021Z,100.00
2022-08-30T10:50:40.989Z,99.84
2022-08-30T10:53:16.816Z,100.00
2022-08-30T10:55:55.343Z,100.00
2022-08-30T10:58:24.401Z,100.00
2022-08-30T11:01:15.770Z,100.00
2022-08-30T11:04:45.534Z,97.62
2022-08-30T11:07:27.578Z,96.18
2022-08-30T11:10:22.023Z,100.00
2022-08-30T11:13:00.715Z,100.00
2022-08-30T11:15:36.648Z,100.00
2022-08-30T11:18:13.911Z,100.00
2022-08-30T11:20:45.831Z,100.00
2022-08-30T11:23:41.133Z,96.36
2022-08-30T11:26:33.206Z,94.43
2022-08-30T11:29:28.198Z,95.19
2022-08-30T11:31:58.032Z,95.50
2022-08-30T11:34:59.775Z,96.37
2022-08-30T11:37:39.689Z,95.26
2022-08-30T11:40:28.334Z,95.59
2022-08-30T11:42:57.586Z,95.72
2022-08-30T11:45:52.157Z,92.73
2022-08-30T11:48:54.048Z,89.43
2022-08-30T11:55:24.218Z,92.52
2022-08-30T11:58:01.725Z,89.45
2022-08-30T12:00:35.478Z,87.38
2022-08-30T12:03:07.950Z,89.65
2022-08-30T12:05:59.680Z,91.13
2022-08-30T12:09:02.969Z,85.08
2022-08-30T12:12:03.650Z,85.00
2022-08-30T12:14:51.917Z,87.01
2022-08-30T12:17:59.585Z,82.52
2022-08-30T12:20:42.035Z,85.66
2022-08-30T12:23:25.218Z,89.65
2022-08-30T12:26:13.107Z,89.38
2022-08-30T12:28:43.099Z,90.40
2022-08-30T12:31:14.797Z,89.06
2022-08-30T12:33:46.357Z,85.00
2022-08-30T12:36:35.852Z,89.98
2022-08-30T12:39:12.037Z,89.79
2022-08-30T12:41:43.309Z,89.25
2022-08-30T12:44:18.051Z,88.23
2022-08-30T12:46:58.866Z,89.06
2022-08-30T12:49:31.718Z,89.02
2022-08-30T12:52:23.241Z,84.95
2022-08-30T12:54:56.773Z,84.01
2022-08-30T12:57:40.269Z,78.63
2022-08-30T13:00:11.969Z,72.10
2022-08-30T13:02:51.903Z,72.23
2022-08-30T13:05:48.165Z,73.31
2022-08-30T13:08:25.221Z,71.13
2022-08-30T13:11:05.777Z,72.57
2022-08-30T13:13:40.979Z,71.85
2022-08-30T13:16:29.293Z,73.52
2022-08-30T13:19:27.795Z,69.91
2022-08-30T13:21:58.518Z,70.44
2022-08-30T13:24:28.700Z,71.08
2022-08-30T13:27:02.855Z,72.91
2022-08-30T13:29:31.910Z,66.54
2022-08-30T13:32:02.239Z,66.21
2022-08-30T13:34:32.972Z,67.84
2022-08-30T13:37:01.321Z,74.51
2022-08-30T13:39:31.004Z,71.13
2022-08-30T13:42:31.805Z,78.32
2022-08-30T13:44:47.836Z,80.65
2022-08-30T13:47:34.880Z,81.73
2022-08-30T13:50:03.781Z,78.40
2022-08-30T13:52:32.001Z,76.63
2022-08-30T13:55:01.489Z,78.77
2022-08-30T14:00:22.407Z,73.87
2022-08-30T14:02:54.607Z,73.67
2022-08-30T14:11:07.453Z,67.66
2022-08-30T14:13:36.078Z,68.04
2022-08-30T14:18:57.395Z,71.36
2022-08-30T14:21:26.157Z,73.34
2022-08-30T14:23:55.966Z,68.84
2022-08-30T14:26:32.359Z,69.15
2022-08-30T14:29:02.612Z,68.64
2022-08-30T14:31:32.660Z,65.19
2022-08-30T14:34:03.286Z,65.01
2022-08-30T14:36:33.289Z,67.43
2022-08-30T14:39:01.880Z,61.32
2022-08-30T14:41:31.567Z,58.25
2022-08-30T14:44:01.069Z,55.68
2022-08-30T14:46:29.299Z,57.89
2022-08-30T14:48:57.462Z,59.62
2022-08-30T14:51:25.653Z,56.13
2022-08-30T14:53:55.127Z,56.79
2022-08-30T14:56:24.875Z,56.09
2022-08-30T14:59:00.399Z,55.50
2022-08-30T15:01:30.036Z,56.00
2022-08-30T15:03:59.785Z,55.55
2022-08-30T15:06:29.589Z,55.05
2022-08-30T15:08:57.773Z,55.94
2022-08-30T15:11:27.889Z,55.24
2022-08-30T15:13:59.314Z,56.32
2022-08-30T15:16:33.937Z,55.08
2022-08-30T15:19:02.901Z,55.06
2022-08-30T15:21:33.663Z,58.01
2022-08-30T15:24:06.545Z,55.85
2022-08-30T15:26:36.157Z,57.64
2022-08-30T15:29:05.818Z,55.45
2022-08-30T15:31:35.003Z,53.88
2022-08-30T15:34:03.521Z,55.01
2022-08-30T15:36:31.789Z,53.34
2022-08-30T15:39:00.523Z,54.40
2022-08-30T15:41:29.925Z,54.79
2022-08-30T15:43:59.763Z,54.91
2022-08-30T15:46:32.223Z,54.28
2022-08-30T15:49:03.555Z,57.00
2022-08-30T15:51:41.557Z,57.60
2022-08-30T15:54:11.920Z,58.52
2022-08-30T15:56:42.027Z,61.46
2022-08-30T15:59:10.708Z,61.98
2022-08-30T16:01:40.721Z,60.52
2022-08-30T16:04:11.094Z,62.78
2022-08-30T16:06:41.763Z,62.15
2022-08-30T16:09:11.690Z,64.58
2022-08-30T16:11:40.492Z,65.14
2022-08-30T16:14:09.610Z,68.01
2022-08-30T16:16:41.770Z,71.15
2022-08-30T16:19:10.899Z,73.03
2022-08-30T16:21:41.588Z,72.83
2022-08-30T16:24:13.466Z,72.13
2022-08-30T16:26:43.837Z,72.99
2022-08-30T16:29:14.549Z,79.45
2022-08-30T16:31:45.424Z,78.50
2022-08-30T16:34:18.371Z,87.65
2022-08-30T16:36:46.802Z,82.40
2022-08-30T16:39:15.550Z,86.63
2022-08-30T16:41:45.401Z,89.13
2022-08-30T16:44:15.922Z,88.00
2022-08-30T16:46:52.955Z,91.56
2022-08-30T16:49:22.969Z,100.00
2022-08-30T16:51:52.536Z,100.00
2022-08-30T16:54:21.833Z,100.00
2022-08-30T16:56:50.480Z,100.00
2022-08-30T16:59:19.159Z,100.00
2022-08-30T17:01:49.321Z,100.00
2022-08-30T17:04:19.532Z,100.00
2022-08-30T17:06:50.124Z,100.00
2022-08-30T17:09:19.916Z,100.00
2022-08-30T17:11:49.384Z,100.00
2022-08-30T17:14:22.889Z,100.00
2022-08-30T17:17:00.555Z,100.00
2022-08-30T17:19:29.653Z,100.00
2022-08-30T17:21:58.426Z,100.00
2022-08-30T17:24:27.340Z,100.00
2022-08-30T17:26:55.652Z,100.00
2022-08-30T17:29:23.936Z,100.00
2022-08-30T17:31:52.362Z,100.00
2022-08-30T17:34:22.862Z,100.00
2022-08-30T17:36:54.803Z,100.00
2022-08-30T17:39:23.376Z,100.00
2022-08-30T17:41:52.771Z,100.00
2022-08-30T17:47:13.190Z,100.00
2022-08-30T17:49:42.889Z,100.00
2022-08-30T17:52:11.548Z,100.00
2022-08-30T17:54:41.403Z,100.00
2022-08-30T17:57:11.519Z,100.00
2022-08-30T17:59:40.971Z,100.00
2022-08-30T18:02:11.081Z,100.00
2022-08-30T18:04:41.808Z,100.00
2022-08-30T18:07:29.816Z,100.00
2022-08-30T18:09:59.308Z,100.00
2022-08-30T18:12:28.125Z,100.00
2022-08-30T18:14:56.287Z,100.00
2022-08-30T18:17:24.681Z,100.00
2022-08-30T18:19:53.578Z,100.00
2022-08-30T18:22:21.733Z,100.00
2022-08-30T18:24:51.349Z,100.00
2022-08-30T18:27:19.615Z,100.00
2022-08-30T18:29:47.805Z,100.00
2022-08-30T18:32:15.982Z,100.00
2022-08-30T18:34:44.125Z,100.00
2022-08-30T18:37:13.021Z,100.00
2022-08-30T18:39:42.473Z,100.00
2022-08-30T18:42:12.009Z,100.00
2022-08-30T18:44:43.448Z,100.00
2022-08-30T18:47:12.574Z,100.00
2022-08-30T18:49:40.813Z,100.00
2022-08-30T18:52:11.408Z,100.00
2022-08-30T18:54:41.723Z,100.00
2022-08-30T18:57:11.881Z,100.00
2022-08-30T18:59:41.794Z,100.00
2022-08-30T19:02:14.313Z,100.00
2022-08-30T19:04:45.411Z,100.00
2022-08-30T19:07:16.925Z,100.00
2022-08-30T19:09:46.725Z,100.00
2022-08-30T19:12:16.964Z,100.00
2022-08-30T19:14:46.129Z,100.00
2022-08-30T19:17:14.857Z,100.00
2022-08-30T19:19:48.530Z,100.00
2022-08-30T19:22:20.155Z,100.00
2022-08-30T19:24:49.811Z,100.00
2022-08-30T19:30:21.624Z,100.00
2022-08-30T19:32:53.500Z,100.00
2022-08-30T19:35:22.439Z,100.00
2022-08-30T19:37:50.911Z,100.00
2022-08-30T19:40:20.803Z,100.00
2022-08-30T19:42:51.476Z,100.00
2022-08-30T19:45:23.047Z,100.00
2022-08-30T19:47:53.221Z,100.00
2022-08-30T19:50:23.146Z,100.00
2022-08-30T19:52:54.714Z,100.00
2022-08-30T19:55:30.260Z,100.00
2022-08-30T19:58:03.957Z,100.00
2022-08-30T20:00:32.669Z,100.00
2022-08-30T20:03:05.990Z,100.00
2022-08-30T20:05:35.143Z,100.00
2022-08-30T20:08:04.086Z,100.00
2022-08-30T20:10:32.408Z,100.00
2022-08-30T20:13:02.472Z,100.00
2022-08-30T20:15:33.470Z,100.00
2022-08-30T20:18:05.428Z,100.00
2022-08-30T20:23:25.587Z,100.00
2022-08-30T20:24:26.038Z,100.00
2022-08-30T20:25:55.505Z,100.00
2022-08-30T20:28:26.180Z,100.00
2022-08-30T20:30:56.466Z,100.00
2022-08-30T20:33:27.441Z,100.00
2022-08-30T20:35:55.927Z,100.00
2022-08-30T20:38:24.204Z,100.00
2022-08-30T20:40:56.529Z,100.00
2022-08-30T20:43:29.707Z,100.00
2022-08-30T20:45:59.943Z,100.00
2022-08-30T20:48:28.905Z,100.00
2022-08-30T20:50:57.079Z,100.00
2022-08-30T20:53:28.340Z,100.00
2022-08-30T20:55:56.511Z,100.00
2022-08-30T20:58:26.106Z,100.00
2022-08-30T21:00:56.452Z,100.00
2022-08-30T21:03:27.628Z,100.00
2022-08-30T21:05:57.089Z,100.00
2022-08-30T21:08:25.437Z,100.00
2022-08-30T21:10:54.950Z,100.00
2022-08-30T21:13:23.336Z,100.00
2022-08-30T21:15:55.410Z,100.00
2022-08-30T21:18:32.646Z,100.00
2022-08-30T21:21:07.927Z,100.00
2022-08-30T21:23:37.040Z,100.00
2022-08-30T21:26:07.033Z,100.00
2022-08-30T21:28:35.553Z,100.00
2022-08-30T21:31:11.535Z,100.00
2022-08-30T21:33:41.187Z,100.00
2022-08-30T21:36:29.277Z,100.00
2022-08-30T21:39:00.525Z,100.00
2022-08-30T21:41:31.613Z,100.00
2022-08-30T21:44:02.255Z,100.00
2022-08-30T21:46:33.350Z,100.00
2022-08-30T21:49:03.634Z,100.00
2022-08-30T21:51:35.638Z,100.00
2022-08-30T21:54:07.123Z,100.00
2022-08-30T21:56:35.615Z,100.00
2022-08-30T21:59:05.119Z,100.00
2022-08-30T22:01:37.615Z,100.00
2022-08-30T22:04:09.954Z,100.00
2022-08-30T22:06:40.503Z,100.00
2022-08-30T22:09:13.717Z,100.00
2022-08-30T22:11:44.365Z,100.00
2022-08-30T22:14:14.333Z,100.00
2022-08-30T22:16:44.615Z,100.00
2022-08-30T22:19:13.378Z,100.00
2022-08-30T22:21:44.642Z,100.00
2022-08-30T22:24:13.270Z,100.00
2022-08-30T22:26:41.747Z,100.00
2022-08-30T22:29:10.604Z,100.00
2022-08-30T22:31:41.644Z,100.00
2022-08-30T22:34:11.812Z,100.00
2022-08-30T22:36:40.114Z,100.00
2022-08-30T22:39:10.063Z,100.00
2022-08-30T22:41:39.458Z,100.00
2022-08-30T22:44:07.799Z,100.00
2022-08-30T22:46:37.858Z,100.00
2022-08-30T22:49:08.377Z,100.00
2022-08-30T22:51:40.724Z,100.00
2022-08-30T22:54:11.164Z,100.00
2022-08-30T22:56:40.438Z,100.00
2022-08-30T22:59:08.928Z,100.00
2022-08-30T23:01:39.814Z,100.00
2022-08-30T23:04:09.953Z,100.00
2022-08-30T23:06:40.050Z,100.00
2022-08-30T23:09:09.720Z,100.00
2022-08-30T23:11:39.770Z,100.00
2022-08-30T23:14:08.525Z,100.00
2022-08-30T23:16:36.773Z,100.00
2022-08-30T23:19:06.291Z,100.00
2022-08-30T23:21:34.736Z,100.00
2022-08-30T23:24:22.831Z,100.00
2022-08-30T23:27:08.832Z,100.00
2022-08-30T23:29:55.110Z,100.00
2022-08-30T23:32:41.591Z,100.00
2022-08-30T23:35:31.686Z,100.00
2022-08-30T23:38:18.183Z,100.00
2022-08-30T23:41:05.224Z,100.00
2022-08-30T23:43:50.950Z,100.00
2022-08-30T23:46:37.074Z,100.00
2022-08-30T23:49:22.951Z,100.00
2022-08-30T23:52:08.890Z,100.00
2022-08-30T23:54:57.081Z,100.00
2022-08-30T23:57:45.210Z,100.00
